Stratford, OK

5:38 PM CDT on August 21, 2014 (GMT -0500)
Lake View | Change Station
CLOSE
Current Station
Personal Weather Station
Location: Stratford, OK
Elevation: 1135 ft
Nearby Weather Stations

Elev 1135 ft 34.79 °N, 96.96 °W | Updated 7 minutes ago

Clear
Clear
92.5 °F
Feels Like 101 °F
N
8.0
Wind Variable Wind from SSE
Gusts 20.0 mph

Today
High -- | Low -- °F
--% Chance of Precip.
Yesterday
High -- | Low -- °F
Precip. -- in
6:52 AM 8:08 PM
Waning Crescent, 12% visible
Pressure 29.96 in
Visibility 10.0 miles
Clouds Clear
Heat Index 101 °F
Dew Point 73 °F
Humidity 53%
Rainfall 0.00 in
Snow Depth Not available.
UV 4 out of 12
Pollen 9.80 out of 12
Air Quality Not available.
Flu Activity Not available.
METAR KADH 212215Z AUTO 16013KT 10SM CLR 33/24 A2996 RMK AO2

More Conditions Fewer Conditions

Pressure 29.96 in
Visibility 10.0 miles
Clouds Clear
Heat Index 101 °F
Dew Point 73 °F
Humidity 53%
Rainfall 0.00 in
Snow Depth Not available.
UV 4 out of 12
Pollen 9.80 out of 12
Air Quality Not available.
Flu Activity Not available.
METAR KADH 212215Z AUTO 16013KT 10SM CLR 33/24 A2996 RMK AO2

More Conditions Fewer Conditions

10-Day Weather Forecast

Almanac

Astronomy

Aug. 21, 2014 Rise Set
Actual Time 6:52 AM CDT 8:08 PM CDT
Civil Twilight 6:26 AM CDT 8:34 PM CDT
Nautical Twilight 5:54 AM CDT 9:06 PM CDT
Astronomical Twilight 5:22 AM CDT 9:38 PM CDT
Moon 3:27 AM CDT 5:34 PM CDT
Length of Visible Light 14h 08m
Length of Day
13h 15m
Tomorrow will be 2m 0s shorter.
Waning Crescent, 12% of the Moon is Illuminated
Today
Waning Crescent
Aug 25
New
Sep 2
First Quarter
Sep 8
Full
Sep 15
Last Quarter

Today's Extremes

State Highs State Lows

Community

WunderPhotos

Upload Photos

1,746,041 photos uploaded!

WunderBlogs® & News

Nearby

Snow Depth

Station Depth Elevation
No new snow has been reported.

Earthquake Activity

City Distance Mag. Time & Date
Medford, Oklahoma 140 miles 3.0 9:13 PM CDT
2014-08-16
Langston, Oklahoma 76 miles 2.9 9:49 PM CDT
2014-08-14
Perry, Oklahoma 107 miles 2.7 6:20 PM CDT
2014-08-14
Minimum magnitude displayed is 2.5.

Coastal Water Temperatures

Place Temperature
No Stations Reporting

Nearby Weather Stations